Time;durP1;ratioP1;P1;durP2;ratioP2;P2;SDS_P1;SDS_P2;PMS_P1;PMS_P2;Temp;Humidity;BMP_temperature;BMP_pressure;BME280_temperature;BME280_humidity;BME280_pressure;Samples;Min_cycle;Max_cycle;Signal;HPM_P1;HPM_P2
2023/12/06 00:01:01;;;;;;;0.40;0.40;;;;;;;2.48;100.00;98543.00;5088358;28;20048;-59
2023/12/06 00:03:30;;;;;;;0.40;0.40;;;;;;;2.53;100.00;98545.03;5096143;28;20039;-60
2023/12/06 00:05:57;;;;;;;0.50;0.50;;;;;;;2.56;100.00;98545.41;5093491;28;20039;-61
2023/12/06 00:08:24;;;;;;;0.50;0.50;;;;;;;2.66;100.00;98544.97;5093115;28;20449;-60
2023/12/06 00:10:51;;;;;;;0.45;0.45;;;;;;;2.72;100.00;98548.63;5093797;28;20107;-59
2023/12/06 00:13:18;;;;;;;0.40;0.40;;;;;;;2.75;100.00;98549.03;5094729;28;20036;-59
2023/12/06 00:15:45;;;;;;;0.50;0.50;;;;;;;2.76;100.00;98555.94;5092973;28;20054;-60
2023/12/06 00:18:12;;;;;;;0.45;0.45;;;;;;;2.79;100.00;98538.84;5098008;28;20589;-59
2023/12/06 00:20:40;;;;;;;0.50;0.50;;;;;;;2.71;100.00;98545.16;5091631;28;20099;-60
2023/12/06 00:23:07;;;;;;;0.40;0.40;;;;;;;2.68;100.00;98553.53;5094564;28;20675;-59
2023/12/06 00:25:34;;;;;;;0.52;0.52;;;;;;;2.65;100.00;98540.72;5093467;28;20146;-59
2023/12/06 00:28:01;;;;;;;0.47;0.47;;;;;;;2.71;100.00;98547.81;5093975;28;20043;-59
2023/12/06 00:30:28;;;;;;;0.50;0.50;;;;;;;2.71;100.00;98552.31;5093649;28;20043;-59
2023/12/06 00:32:55;;;;;;;0.50;0.50;;;;;;;2.76;100.00;98557.78;5097110;28;20438;-60
2023/12/06 00:35:23;;;;;;;0.60;0.60;;;;;;;2.69;100.00;98555.16;5091750;28;20375;-60
2023/12/06 00:37:51;;;;;;;0.50;0.50;;;;;;;2.65;100.00;98553.94;5093347;28;20051;-60
2023/12/06 00:40:18;;;;;;;0.43;0.43;;;;;;;2.57;100.00;98555.00;5095317;28;20048;-59
2023/12/06 00:42:45;;;;;;;0.57;0.57;;;;;;;2.43;100.00;98553.38;5097355;28;20046;-59
2023/12/06 00:45:12;;;;;;;0.50;0.50;;;;;;;2.48;100.00;98558.88;5093081;28;20051;-59
2023/12/06 00:47:39;;;;;;;0.60;0.60;;;;;;;2.56;100.00;98568.41;5102576;28;20039;-59
2023/12/06 00:50:07;;;;;;;0.50;0.50;;;;;;;2.53;100.00;98566.19;5095365;28;20044;-60
2023/12/06 00:52:34;;;;;;;0.50;0.50;;;;;;;2.51;100.00;98568.22;5093766;28;20050;-60
2023/12/06 00:55:03;;;;;;;0.50;0.50;;;;;;;2.44;100.00;98562.94;5093155;28;20041;-59
2023/12/06 00:57:30;;;;;;;0.55;0.55;;;;;;;2.36;100.00;98569.25;5096088;28;20047;-59
2023/12/06 00:59:57;;;;;;;0.40;0.40;;;;;;;2.38;100.00;98572.50;5090734;28;20097;-59
2023/12/06 01:02:24;;;;;;;0.50;0.50;;;;;;;2.40;100.00;98564.38;5093025;28;20044;-59
2023/12/06 01:04:51;;;;;;;0.43;0.43;;;;;;;2.38;100.00;98564.56;5099097;28;20135;-60
2023/12/06 01:07:18;;;;;;;0.40;0.40;;;;;;;2.41;100.00;98576.56;5097350;28;20134;-59
2023/12/06 01:09:45;;;;;;;0.40;0.40;;;;;;;2.36;100.00;98571.91;5094423;28;20101;-60
2023/12/06 01:12:14;;;;;;;0.57;0.57;;;;;;;2.35;100.00;98572.13;5093681;27;20048;-59
2023/12/06 01:14:41;;;;;;;0.47;0.47;;;;;;;2.33;100.00;98576.81;5092207;28;20498;-59
2023/12/06 01:17:08;;;;;;;0.50;0.50;;;;;;;2.34;100.00;98579.22;5089982;28;20071;-60
2023/12/06 01:19:35;;;;;;;0.50;0.50;;;;;;;2.32;100.00;98581.28;5090657;28;20135;-59
2023/12/06 01:22:02;;;;;;;0.50;0.50;;;;;;;2.29;100.00;98579.03;5097622;28;20044;-60
2023/12/06 01:24:29;;;;;;;0.40;0.40;;;;;;;2.34;100.00;98584.50;5098991;28;20063;-59
2023/12/06 01:26:56;;;;;;;0.40;0.40;;;;;;;2.32;100.00;98583.94;5097496;28;20043;-59
2023/12/06 01:29:24;;;;;;;0.50;0.50;;;;;;;2.31;100.00;98592.84;5096703;28;20039;-59
2023/12/06 01:31:52;;;;;;;0.43;0.43;;;;;;;2.28;100.00;98593.28;5096612;28;20420;-59
2023/12/06 01:34:19;;;;;;;0.43;0.43;;;;;;;2.34;100.00;98592.44;5086419;28;20506;-59
2023/12/06 01:36:46;;;;;;;0.50;0.50;;;;;;;2.36;100.00;98603.63;5098942;28;20046;-59
2023/12/06 01:39:13;;;;;;;0.60;0.60;;;;;;;2.44;100.00;98613.19;5093940;28;20067;-60
2023/12/06 01:41:40;;;;;;;0.47;0.47;;;;;;;2.44;100.00;98604.44;5090736;28;20046;-59
2023/12/06 01:44:08;;;;;;;0.60;0.60;;;;;;;2.45;100.00;98606.09;5089081;28;20048;-60
2023/12/06 01:46:38;;;;;;;0.60;0.60;;;;;;;2.45;100.00;98612.19;5092707;28;20454;-60
2023/12/06 01:49:04;;;;;;;0.40;0.40;;;;;;;2.44;100.00;98609.75;5087616;28;20040;-59
2023/12/06 01:51:31;;;;;;;0.57;0.57;;;;;;;2.20;100.00;98609.34;5091139;28;20059;-60
2023/12/06 01:53:58;;;;;;;0.50;0.50;;;;;;;2.28;100.00;98617.06;5083728;28;20125;-60
2023/12/06 01:56:25;;;;;;;0.60;0.60;;;;;;;2.35;100.00;98615.25;5091066;28;20166;-59
2023/12/06 01:58:52;;;;;;;0.50;0.50;;;;;;;2.43;100.00;98618.72;5089188;28;20035;-59
2023/12/06 02:01:19;;;;;;;0.40;0.40;;;;;;;2.41;100.00;98610.97;5087706;28;20154;-61
2023/12/06 02:03:48;;;;;;;0.40;0.40;;;;;;;2.43;100.00;98608.94;5095229;28;20121;-59
2023/12/06 02:06:15;;;;;;;0.60;0.60;;;;;;;2.50;100.00;98619.50;5087100;27;20139;-59
2023/12/06 02:08:42;;;;;;;0.60;0.60;;;;;;;2.55;100.00;98619.72;5091312;28;20148;-60
2023/12/06 02:11:09;;;;;;;0.60;0.60;;;;;;;2.57;100.00;98621.13;5097077;28;20039;-59
2023/12/06 02:13:36;;;;;;;0.60;0.60;;;;;;;2.57;100.00;98620.28;5095586;28;20229;-60
2023/12/06 02:16:04;;;;;;;0.60;0.60;;;;;;;2.58;100.00;98622.75;5095965;28;20955;-59
2023/12/06 02:18:31;;;;;;;0.50;0.50;;;;;;;2.50;100.00;98622.16;5094008;28;20051;-60
2023/12/06 02:20:59;;;;;;;0.50;0.50;;;;;;;2.52;100.00;98625.38;5094678;28;20047;-59
2023/12/06 02:23:31;;;;;;;0.50;0.50;;;;;;;2.56;100.00;98629.25;5094219;28;20042;-59
2023/12/06 02:25:59;;;;;;;0.50;0.50;;;;;;;2.58;100.00;98630.69;5087914;28;20040;-60
2023/12/06 02:28:26;;;;;;;0.40;0.40;;;;;;;2.55;100.00;98627.66;5094432;28;20456;-59
2023/12/06 02:30:54;;;;;;;0.50;0.50;;;;;;;2.61;100.00;98634.75;5094525;28;20052;-60
2023/12/06 02:33:21;;;;;;;0.52;0.52;;;;;;;2.59;100.00;98644.72;5083625;28;20488;-60
2023/12/06 02:35:52;;;;;;;0.47;0.47;;;;;;;2.53;100.00;98645.56;5080787;28;20044;-59
2023/12/06 02:38:19;;;;;;;0.43;0.43;;;;;;;2.54;100.00;98647.16;5089199;27;20047;-59
2023/12/06 02:40:47;;;;;;;0.60;0.60;;;;;;;2.57;100.00;98646.75;5087826;28;20067;-60
2023/12/06 02:43:16;;;;;;;0.40;0.40;;;;;;;2.58;100.00;98658.97;5092785;28;20099;-60
2023/12/06 02:45:43;;;;;;;0.50;0.50;;;;;;;2.23;100.00;98653.09;5093855;28;20040;-59
2023/12/06 02:48:10;;;;;;;0.40;0.40;;;;;;;2.30;100.00;98657.34;5091184;28;20274;-59
2023/12/06 02:50:37;;;;;;;0.47;0.47;;;;;;;2.30;100.00;98662.66;5088269;28;20048;-59
2023/12/06 02:53:04;;;;;;;0.57;0.57;;;;;;;2.37;100.00;98668.75;5087647;28;20053;-59
2023/12/06 02:55:31;;;;;;;0.60;0.60;;;;;;;2.40;100.00;98669.34;5089079;28;20487;-59
2023/12/06 02:57:58;;;;;;;0.50;0.50;;;;;;;2.38;100.00;98664.28;5087150;28;20050;-59
2023/12/06 03:00:26;;;;;;;0.40;0.40;;;;;;;2.33;100.00;98664.88;5089497;28;20546;-59
2023/12/06 03:02:53;;;;;;;0.50;0.50;;;;;;;2.22;100.00;98664.66;5094925;28;20569;-59
2023/12/06 03:05:20;;;;;;;0.52;0.52;;;;;;;2.22;100.00;98665.50;5089703;28;20048;-60
2023/12/06 03:07:47;;;;;;;0.40;0.40;;;;;;;2.20;100.00;98666.69;5099315;27;20043;-59
2023/12/06 03:10:14;;;;;;;0.50;0.50;;;;;;;2.23;100.00;98659.19;5089202;28;20457;-59
2023/12/06 03:12:41;;;;;;;0.60;0.60;;;;;;;2.22;100.00;98664.66;5094210;28;20662;-59
2023/12/06 03:15:09;;;;;;;0.50;0.50;;;;;;;2.07;100.00;98662.19;5091079;28;20086;-59
2023/12/06 03:17:37;;;;;;;0.47;0.47;;;;;;;2.10;100.00;98665.28;5096577;28;20048;-59
2023/12/06 03:20:06;;;;;;;0.50;0.50;;;;;;;1.98;100.00;98674.00;5094418;28;20046;-60
2023/12/06 03:22:33;;;;;;;0.60;0.60;;;;;;;2.04;100.00;98673.19;5097855;28;20035;-60
2023/12/06 03:25:00;;;;;;;0.60;0.60;;;;;;;2.04;100.00;98678.47;5089485;28;20048;-58
2023/12/06 03:27:27;;;;;;;0.50;0.50;;;;;;;2.02;100.00;98672.56;5089425;28;20036;-59
2023/12/06 03:29:54;;;;;;;0.50;0.50;;;;;;;1.97;100.00;98677.63;5087622;28;20117;-60
2023/12/06 03:32:21;;;;;;;0.65;0.65;;;;;;;1.92;100.00;98676.44;5087018;28;20134;-58
2023/12/06 03:34:50;;;;;;;0.50;0.50;;;;;;;1.92;100.00;98680.88;5093190;28;20174;-58
2023/12/06 03:37:17;;;;;;;0.60;0.60;;;;;;;1.83;100.00;98684.72;5093880;28;20138;-58
2023/12/06 03:39:44;;;;;;;0.70;0.70;;;;;;;1.96;100.00;98695.34;5099413;28;20130;-58
2023/12/06 03:42:11;;;;;;;0.50;0.50;;;;;;;1.86;100.00;98687.78;5095627;28;20075;-60
2023/12/06 03:44:37;;;;;;;0.60;0.60;;;;;;;1.78;100.00;98695.91;5092355;28;20066;-60
2023/12/06 03:47:05;;;;;;;0.68;0.68;;;;;;;1.84;100.00;98694.28;5096969;28;20162;-60
2023/12/06 03:49:32;;;;;;;0.60;0.60;;;;;;;1.80;100.00;98693.88;5089380;28;20048;-60
2023/12/06 03:52:00;;;;;;;0.63;0.63;;;;;;;1.75;100.00;98695.47;5092143;28;20068;-60
2023/12/06 03:54:27;;;;;;;0.50;0.50;;;;;;;1.69;100.00;98700.53;5095823;28;20490;-60
2023/12/06 03:56:55;;;;;;;0.40;0.40;;;;;;;1.75;100.00;98701.59;5089551;28;20059;-60
2023/12/06 03:59:22;;;;;;;0.60;0.60;;;;;;;1.68;100.00;98706.84;5095326;28;20047;-60
2023/12/06 04:01:49;;;;;;;0.60;0.60;;;;;;;1.75;100.00;98712.16;5092485;28;20100;-60
2023/12/06 04:04:16;;;;;;;0.60;0.60;;;;;;;1.62;100.00;98707.63;5097491;28;20135;-59
2023/12/06 04:06:43;;;;;;;0.60;0.60;;;;;;;1.55;100.00;98712.06;5097721;28;20039;-60
2023/12/06 04:09:12;;;;;;;0.57;0.57;;;;;;;1.61;100.00;98715.75;5092880;28;20113;-60
2023/12/06 04:11:41;;;;;;;0.52;0.52;;;;;;;1.61;100.00;98726.31;5089201;28;20703;-60
2023/12/06 04:14:08;;;;;;;0.50;0.50;;;;;;;1.66;100.00;98729.19;5101832;28;20444;-60
2023/12/06 04:16:36;;;;;;;0.57;0.57;;;;;;;1.68;100.00;98727.97;5094199;28;20166;-59
2023/12/06 04:19:03;;;;;;;0.70;0.70;;;;;;;1.53;100.00;98731.78;5089288;28;20039;-60
2023/12/06 04:21:30;;;;;;;0.50;0.50;;;;;;;1.41;100.00;98742.88;5093581;28;20039;-60
2023/12/06 04:23:57;;;;;;;0.60;0.60;;;;;;;1.41;100.00;98737.59;5095131;28;20488;-59
2023/12/06 04:26:26;;;;;;;0.68;0.68;;;;;;;1.53;100.00;98739.69;5091707;28;20153;-58
2023/12/06 04:28:53;;;;;;;0.60;0.60;;;;;;;1.53;100.00;98737.88;5089925;28;20133;-59
2023/12/06 04:31:20;;;;;;;0.55;0.55;;;;;;;1.51;100.00;98745.97;5098167;28;20713;-58
2023/12/06 04:33:47;;;;;;;0.60;0.60;;;;;;;1.50;100.00;98747.00;5094134;28;20108;-58
2023/12/06 04:36:14;;;;;;;0.60;0.60;;;;;;;1.50;100.00;98754.09;5097163;28;20050;-59
2023/12/06 04:38:41;;;;;;;0.60;0.60;;;;;;;1.34;100.00;98765.78;5097098;28;20050;-58
2023/12/06 04:41:08;;;;;;;0.55;0.55;;;;;;;1.24;100.00;98768.78;5091173;28;20044;-58
2023/12/06 04:43:37;;;;;;;0.50;0.50;;;;;;;1.15;100.00;98771.75;5093524;28;20117;-60
2023/12/06 04:46:04;;;;;;;0.57;0.57;;;;;;;1.23;100.00;98774.25;5096721;28;20043;-59
2023/12/06 04:48:31;;;;;;;0.50;0.50;;;;;;;1.14;100.00;98778.03;5090934;28;20078;-59
2023/12/06 04:50:58;;;;;;;0.60;0.60;;;;;;;1.14;100.00;98784.13;5094516;28;20039;-59
2023/12/06 04:53:25;;;;;;;0.60;0.60;;;;;;;1.22;100.00;98791.09;5092849;28;20075;-59
2023/12/06 04:55:52;;;;;;;0.50;0.50;;;;;;;1.18;100.00;98787.22;5096352;28;20045;-59
2023/12/06 04:58:19;;;;;;;0.65;0.65;;;;;;;1.07;100.00;98789.38;5095244;28;20040;-59
2023/12/06 05:00:50;;;;;;;0.52;0.52;;;;;;;1.01;100.00;98790.13;5099709;28;20124;-59
2023/12/06 05:03:19;;;;;;;0.57;0.57;;;;;;;1.04;100.00;98789.75;5095540;27;20101;-61
2023/12/06 05:05:49;;;;;;;0.70;0.70;;;;;;;1.02;100.00;98797.06;5098186;28;20039;-60
2023/12/06 05:08:16;;;;;;;0.55;0.55;;;;;;;1.05;100.00;98796.69;5099237;28;20135;-60
2023/12/06 05:10:43;;;;;;;0.60;0.60;;;;;;;1.07;100.00;98789.38;5099042;28;22340;-61
2023/12/06 05:13:10;;;;;;;0.60;0.60;;;;;;;1.10;100.00;98803.19;5106814;27;20040;-61
2023/12/06 05:15:37;;;;;;;0.57;0.57;;;;;;;1.07;100.00;98801.75;5091807;28;20504;-60
2023/12/06 05:18:07;;;;;;;0.50;0.50;;;;;;;1.02;100.00;98806.78;5092521;27;20141;-60
2023/12/06 05:20:34;;;;;;;0.52;0.52;;;;;;;1.00;100.00;98804.34;5097369;28;20036;-60
2023/12/06 05:23:01;;;;;;;0.55;0.55;;;;;;;1.03;100.00;98811.88;5094025;28;20040;-60
2023/12/06 05:25:28;;;;;;;0.45;0.45;;;;;;;1.13;100.00;98811.56;5104193;27;20091;-60
2023/12/06 05:27:55;;;;;;;0.60;0.60;;;;;;;1.05;100.00;98817.78;5093723;28;20046;-60
2023/12/06 05:30:22;;;;;;;0.55;0.55;;;;;;;1.06;100.00;98816.78;5095897;28;20081;-58
2023/12/06 05:32:49;;;;;;;0.50;0.50;;;;;;;1.07;100.00;98817.59;5095121;28;20071;-58
2023/12/06 05:35:17;;;;;;;0.40;0.40;;;;;;;1.04;100.00;98818.78;5093482;28;20118;-58
2023/12/06 05:37:44;;;;;;;0.65;0.65;;;;;;;1.07;100.00;98823.69;5100993;27;20678;-58
2023/12/06 05:40:12;;;;;;;0.50;0.50;;;;;;;1.05;100.00;98822.25;5097352;27;20140;-58
2023/12/06 05:42:39;;;;;;;0.60;0.60;;;;;;;1.12;100.00;98835.50;5089203;28;20085;-59
2023/12/06 05:45:08;;;;;;;0.68;0.68;;;;;;;1.12;100.00;98840.78;5087611;28;20067;-58
2023/12/06 05:47:35;;;;;;;0.60;0.60;;;;;;;1.06;100.00;98840.53;5091426;28;20434;-59
2023/12/06 05:50:03;;;;;;;0.40;0.40;;;;;;;1.07;100.00;98843.97;5099455;27;20682;-58
2023/12/06 05:52:31;;;;;;;0.60;0.60;;;;;;;1.06;100.00;98845.81;5099301;28;20047;-58
2023/12/06 05:54:59;;;;;;;0.50;0.50;;;;;;;0.98;100.00;98838.03;5088349;28;20044;-60
2023/12/06 05:57:28;;;;;;;0.60;0.60;;;;;;;1.04;100.00;98841.72;5092628;28;20132;-60
2023/12/06 05:59:55;;;;;;;0.60;0.60;;;;;;;1.04;100.00;98841.72;5095205;28;20054;-60
2023/12/06 06:02:22;;;;;;;0.50;0.50;;;;;;;0.96;100.00;98842.69;5093844;28;20047;-60
2023/12/06 06:04:49;;;;;;;0.57;0.57;;;;;;;1.04;100.00;98847.81;5095526;28;20047;-59
2023/12/06 06:07:16;;;;;;;0.50;0.50;;;;;;;1.11;100.00;98855.78;5095187;28;20070;-60
2023/12/06 06:09:44;;;;;;;0.60;0.60;;;;;;;1.14;100.00;98857.25;5091270;28;20048;-60
2023/12/06 06:12:11;;;;;;;0.60;0.60;;;;;;;1.08;100.00;98862.28;5097459;28;20208;-60
2023/12/06 06:14:38;;;;;;;0.60;0.60;;;;;;;1.14;100.00;98863.31;5095255;28;20063;-60
2023/12/06 06:17:05;;;;;;;0.50;0.50;;;;;;;1.12;100.00;98856.59;5096233;28;20040;-60
2023/12/06 06:19:32;;;;;;;0.50;0.50;;;;;;;1.12;100.00;98864.53;5087284;28;20152;-60
2023/12/06 06:21:59;;;;;;;0.63;0.63;;;;;;;1.06;100.00;98869.56;5096774;28;20039;-60
2023/12/06 06:24:26;;;;;;;0.50;0.50;;;;;;;1.09;100.00;98871.00;5102466;27;20446;-60
2023/12/06 06:26:55;;;;;;;0.60;0.60;;;;;;;1.10;100.00;98877.09;5095084;28;20050;-60
2023/12/06 06:29:22;;;;;;;0.55;0.55;;;;;;;1.15;100.00;98887.91;5099529;28;20040;-60
2023/12/06 06:31:49;;;;;;;0.60;0.60;;;;;;;1.18;100.00;98882.25;5086216;28;20922;-59
2023/12/06 06:34:16;;;;;;;0.65;0.65;;;;;;;1.18;100.00;98883.06;5089433;28;20047;-59
2023/12/06 06:36:43;;;;;;;0.50;0.50;;;;;;;1.17;100.00;98886.69;5091549;28;20048;-59
2023/12/06 06:39:12;;;;;;;0.60;0.60;;;;;;;1.19;100.00;98883.88;5091731;28;20046;-59
2023/12/06 06:41:39;;;;;;;0.57;0.57;;;;;;;1.15;100.00;98891.38;5094164;28;20142;-59
2023/12/06 06:44:08;;;;;;;0.50;0.50;;;;;;;1.14;100.00;98895.00;5091896;28;20044;-59
2023/12/06 06:46:35;;;;;;;0.60;0.60;;;;;;;1.16;100.00;98892.19;5093433;28;20044;-59
2023/12/06 06:49:02;;;;;;;0.60;0.60;;;;;;;1.11;100.00;98902.50;5093221;28;20096;-59
2023/12/06 06:51:35;;;;;;;0.60;0.60;;;;;;;1.18;100.00;98908.66;5094032;28;20389;-60
2023/12/06 06:54:02;;;;;;;0.60;0.60;;;;;;;1.19;100.00;98905.00;5107466;27;20150;-59
2023/12/06 06:56:29;;;;;;;0.50;0.50;;;;;;;1.22;100.00;98908.09;5093070;28;20043;-59
2023/12/06 06:58:56;;;;;;;0.50;0.50;;;;;;;1.14;100.00;98910.03;5090878;28;20078;-59
2023/12/06 07:01:25;;;;;;;0.60;0.60;;;;;;;1.17;100.00;98909.66;5095749;28;20451;-59
2023/12/06 07:03:53;;;;;;;0.70;0.70;;;;;;;1.22;100.00;98913.38;5095236;28;20067;-59
2023/12/06 07:06:20;;;;;;;0.52;0.52;;;;;;;1.28;100.00;98911.78;5091378;28;20542;-60
2023/12/06 07:08:49;;;;;;;0.65;0.65;;;;;;;1.19;100.00;98910.28;5096450;28;20268;-60
2023/12/06 07:11:17;;;;;;;0.73;0.73;;;;;;;1.24;100.00;98913.16;5089493;28;20130;-59
2023/12/06 07:13:44;;;;;;;0.57;0.57;;;;;;;1.21;100.00;98922.28;5094772;28;20043;-59
2023/12/06 07:16:11;;;;;;;0.55;0.55;;;;;;;1.22;100.00;98937.13;5086308;28;20510;-59
2023/12/06 07:18:40;;;;;;;0.50;0.50;;;;;;;1.26;100.00;98934.91;5092051;28;20210;-60
2023/12/06 07:21:08;;;;;;;0.55;0.55;;;;;;;1.25;100.00;98941.22;5093023;28;20047;-59
2023/12/06 07:23:35;;;;;;;0.50;0.50;;;;;;;1.25;100.00;98933.31;5088638;28;20533;-60
2023/12/06 07:26:02;;;;;;;0.60;0.60;;;;;;;1.31;100.00;98942.28;5093867;28;20143;-59
2023/12/06 07:28:30;;;;;;;0.50;0.50;;;;;;;1.31;100.00;98943.09;5091587;28;20043;-60
2023/12/06 07:30:57;;;;;;;0.52;0.52;;;;;;;1.36;100.00;98945.97;5094653;28;20039;-59
2023/12/06 07:33:24;;;;;;;0.60;0.60;;;;;;;1.34;100.00;98947.97;5092594;28;20498;-59
2023/12/06 07:35:53;;;;;;;0.70;0.70;;;;;;;1.44;100.00;98943.19;5087040;28;20048;-59
2023/12/06 07:38:20;;;;;;;0.60;0.60;;;;;;;1.56;100.00;98953.25;5092393;28;20161;-59
2023/12/06 07:40:48;;;;;;;0.60;0.60;;;;;;;1.52;100.00;98950.16;5092056;28;20663;-59
2023/12/06 07:43:15;;;;;;;0.40;0.40;;;;;;;1.53;100.00;98957.09;5093516;28;20595;-59
2023/12/06 07:45:43;;;;;;;0.50;0.50;;;;;;;1.49;100.00;98961.13;5088233;28;20059;-59
2023/12/06 07:48:10;;;;;;;0.40;0.40;;;;;;;1.50;100.00;98975.97;5090862;28;20031;-59
2023/12/06 07:50:37;;;;;;;0.60;0.60;;;;;;;1.48;100.00;98973.50;5081689;28;20039;-59
2023/12/06 07:53:06;;;;;;;0.50;0.50;;;;;;;1.48;100.00;98970.88;5087445;28;20048;-59
2023/12/06 07:55:33;;;;;;;0.55;0.55;;;;;;;1.47;100.00;98982.47;5084091;28;20055;-59
2023/12/06 07:58:00;;;;;;;0.47;0.47;;;;;;;1.44;100.00;98985.44;5089369;28;20344;-60
2023/12/06 08:00:27;;;;;;;0.60;0.60;;;;;;;1.43;100.00;98980.38;5093680;28;20151;-59
2023/12/06 08:02:56;;;;;;;0.50;0.50;;;;;;;1.51;100.00;98975.78;5093962;28;20058;-59
2023/12/06 08:05:23;;;;;;;0.50;0.50;;;;;;;1.51;100.00;98981.06;5090125;28;20059;-59
2023/12/06 08:07:50;;;;;;;0.50;0.50;;;;;;;1.51;100.00;98980.25;5091452;28;20043;-59
2023/12/06 08:10:22;;;;;;;0.60;0.60;;;;;;;1.54;100.00;98979.03;5088824;28;20064;-59
2023/12/06 08:12:49;;;;;;;0.40;0.40;;;;;;;1.57;100.00;98989.22;5090838;28;20070;-59
2023/12/06 08:15:17;;;;;;;0.65;0.65;;;;;;;1.57;100.00;98989.22;5090549;28;20517;-59
2023/12/06 08:17:44;;;;;;;0.60;0.60;;;;;;;1.61;100.00;98995.78;5090467;28;20506;-60
2023/12/06 08:20:11;;;;;;;0.60;0.60;;;;;;;1.69;100.00;98987.69;5092246;28;20185;-59
2023/12/06 08:22:38;;;;;;;0.50;0.50;;;;;;;1.63;100.00;98988.47;5084206;28;20143;-60
2023/12/06 08:25:06;;;;;;;0.57;0.57;;;;;;;1.59;100.00;98987.22;5090251;28;20073;-58
2023/12/06 08:27:35;;;;;;;0.60;0.60;;;;;;;1.69;100.00;98987.69;5093422;28;20139;-59
2023/12/06 08:30:02;;;;;;;0.60;0.60;;;;;;;1.68;100.00;98994.00;5090357;28;20039;-58
2023/12/06 08:32:30;;;;;;;0.50;0.50;;;;;;;1.78;100.00;98997.13;5093808;28;20031;-58
2023/12/06 08:34:57;;;;;;;0.43;0.43;;;;;;;1.75;100.00;98988.75;5096168;28;20047;-59
2023/12/06 08:37:25;;;;;;;0.50;0.50;;;;;;;1.73;100.00;99008.28;5097112;28;20578;-58
2023/12/06 08:39:53;;;;;;;0.50;0.50;;;;;;;1.76;100.00;99006.25;5088833;27;20059;-60
2023/12/06 08:42:20;;;;;;;0.43;0.43;;;;;;;1.76;100.00;99012.34;5095328;28;20056;-60
2023/12/06 08:44:48;;;;;;;0.60;0.60;;;;;;;1.75;100.00;99015.19;5094240;28;20051;-59
2023/12/06 08:47:17;;;;;;;0.55;0.55;;;;;;;1.77;100.00;99027.19;5086576;28;20097;-58
2023/12/06 08:49:44;;;;;;;0.50;0.50;;;;;;;1.87;100.00;99014.50;5087670;28;20469;-60
2023/12/06 08:52:11;;;;;;;0.50;0.50;;;;;;;1.87;100.00;99022.44;5099164;28;20494;-60
2023/12/06 08:54:38;;;;;;;0.50;0.50;;;;;;;1.86;100.00;99028.69;5093274;28;20036;-60
2023/12/06 08:57:06;;;;;;;0.40;0.40;;;;;;;1.89;100.00;99024.84;5093865;28;20054;-60
2023/12/06 08:59:33;;;;;;;0.60;0.60;;;;;;;1.92;100.00;99014.75;5096243;28;20051;-60
2023/12/06 09:02:01;;;;;;;0.40;0.40;;;;;;;1.98;100.00;99022.91;5093135;27;20211;-60
2023/12/06 09:04:28;;;;;;;0.60;0.60;;;;;;;1.92;100.00;99019.19;5093514;28;20044;-60
2023/12/06 09:06:56;;;;;;;0.40;0.40;;;;;;;1.84;100.00;99021.97;5090112;28;20040;-60
2023/12/06 09:09:23;;;;;;;0.60;0.60;;;;;;;1.86;100.00;99023.41;5091899;27;20136;-60
2023/12/06 09:11:50;;;;;;;0.60;0.60;;;;;;;1.94;100.00;99028.56;5085672;28;20090;-60
2023/12/06 09:14:17;;;;;;;0.60;0.60;;;;;;;2.01;100.00;99019.88;5093335;28;20048;-61
2023/12/06 09:16:44;;;;;;;0.50;0.50;;;;;;;2.00;100.00;99023.50;5095339;28;20055;-60
2023/12/06 09:19:12;;;;;;;0.57;0.57;;;;;;;2.01;100.00;99022.53;5094209;28;20050;-61
2023/12/06 09:21:41;;;;;;;0.50;0.50;;;;;;;2.04;100.00;99014.19;5087969;28;20130;-60
2023/12/06 09:24:08;;;;;;;0.60;0.60;;;;;;;2.09;100.00;99020.53;5096450;28;20054;-60
2023/12/06 09:26:37;;;;;;;0.50;0.50;;;;;;;2.06;100.00;99014.81;5089638;28;20052;-60
2023/12/06 09:29:05;;;;;;;0.60;0.60;;;;;;;2.04;100.00;99019.47;5095201;28;20123;-60
2023/12/06 09:31:32;;;;;;;0.60;0.60;;;;;;;2.18;100.00;99017.75;5093293;28;20043;-60
2023/12/06 09:33:59;;;;;;;0.50;0.50;;;;;;;2.25;100.00;99019.44;5091544;28;20127;-60
2023/12/06 09:36:28;;;;;;;0.50;0.50;;;;;;;2.34;100.00;99023.53;5087822;28;20052;-60
2023/12/06 09:38:56;;;;;;;0.43;0.43;;;;;;;2.40;100.00;99032.56;5084084;28;22442;-60
2023/12/06 09:41:24;;;;;;;0.50;0.50;;;;;;;2.52;100.00;99035.44;5093452;28;20468;-60
2023/12/06 09:43:51;;;;;;;0.50;0.50;;;;;;;2.51;100.00;99033.84;5089391;28;20109;-60
2023/12/06 09:46:19;;;;;;;0.30;0.30;;;;;;;2.57;100.00;99043.63;5093011;28;20050;-60
2023/12/06 09:48:47;;;;;;;0.50;0.50;;;;;;;2.63;100.00;99045.50;5095010;28;20048;-60
2023/12/06 09:51:14;;;;;;;0.52;0.52;;;;;;;2.65;100.00;99051.44;5089348;28;20048;-60
2023/12/06 09:53:43;;;;;;;0.50;0.50;;;;;;;2.71;100.00;99055.91;5093756;28;20445;-59
2023/12/06 09:56:10;;;;;;;0.60;0.60;;;;;;;2.86;100.00;99054.97;5093465;28;20051;-60
2023/12/06 09:58:37;;;;;;;0.40;0.40;;;;;;;2.88;100.00;99052.97;5092933;27;20059;-59
2023/12/06 10:01:05;;;;;;;0.60;0.60;;;;;;;2.97;100.00;99049.09;5096468;28;20043;-58
2023/12/06 10:03:32;;;;;;;0.50;0.50;;;;;;;3.03;100.00;99050.97;5088849;28;20142;-59
2023/12/06 10:06:03;;;;;;;0.40;0.40;;;;;;;3.16;100.00;99058.16;5088054;28;20042;-60
2023/12/06 10:08:30;;;;;;;0.40;0.40;;;;;;;3.15;100.00;99057.34;5089326;28;20052;-61
2023/12/06 10:11:05;;;;;;;0.40;0.40;;;;;;;3.23;100.00;99065.09;5088921;28;20394;-58
2023/12/06 10:13:34;;;;;;;0.43;0.43;;;;;;;3.12;100.00;99068.34;5098481;28;20061;-60
2023/12/06 10:16:01;;;;;;;0.50;0.50;;;;;;;3.06;100.00;99073.59;5095771;28;20093;-60
2023/12/06 10:18:28;;;;;;;0.60;0.60;;;;;;;2.89;100.00;99089.00;5091814;28;20058;-59
2023/12/06 10:20:55;;;;;;;0.50;0.50;;;;;;;2.84;100.00;99075.53;5086424;28;20051;-59
2023/12/06 10:23:22;;;;;;;0.50;0.50;;;;;;;2.90;100.00;99091.47;5091459;28;20044;-59
2023/12/06 10:25:50;;;;;;;0.50;0.50;;;;;;;2.93;100.00;99090.25;5089010;28;20035;-59
2023/12/06 10:28:19;;;;;;;0.63;0.63;;;;;;;2.89;100.00;99086.34;5088212;28;20516;-59
2023/12/06 10:30:48;;;;;;;0.40;0.40;;;;;;;2.87;100.00;99085.72;5089702;28;20097;-60
2023/12/06 10:33:15;;;;;;;0.45;0.45;;;;;;;2.87;100.00;99085.72;5090288;28;20328;-62
2023/12/06 10:35:42;;;;;;;0.40;0.40;;;;;;;2.96;100.00;99089.84;5086644;28;20055;-59
2023/12/06 10:38:10;;;;;;;0.40;0.40;;;;;;;2.98;100.00;99082.53;5089552;28;20130;-59
2023/12/06 10:40:37;;;;;;;0.38;0.38;;;;;;;2.92;100.00;99091.25;5093685;27;20051;-60
2023/12/06 10:43:06;;;;;;;0.50;0.50;;;;;;;2.99;100.00;99076.22;5090256;28;20410;-59
2023/12/06 10:45:34;;;;;;;0.50;0.50;;;;;;;3.01;100.00;99082.13;5082663;28;20048;-59
2023/12/06 10:48:03;;;;;;;0.50;0.50;;;;;;;3.13;100.00;99080.56;5088043;28;20043;-61
2023/12/06 10:50:31;;;;;;;0.50;0.50;;;;;;;3.08;100.00;99082.16;5089455;28;20044;-58
2023/12/06 10:52:58;;;;;;;0.50;0.50;;;;;;;3.21;100.00;99090.97;5095259;28;20055;-61
2023/12/06 10:55:25;;;;;;;0.40;0.40;;;;;;;3.20;100.00;99091.19;5093104;28;20040;-60
2023/12/06 10:57:53;;;;;;;0.40;0.40;;;;;;;3.34;100.00;99095.50;5090545;28;20449;-58
2023/12/06 11:00:20;;;;;;;0.40;0.40;;;;;;;3.44;100.00;99100.41;5094992;28;20039;-58
2023/12/06 11:02:49;;;;;;;0.45;0.45;;;;;;;3.42;100.00;99097.16;5089741;28;20052;-58
2023/12/06 11:05:16;;;;;;;0.40;0.40;;;;;;;3.50;100.00;99094.34;5081220;28;20544;-59
2023/12/06 11:07:51;;;;;;;0.35;0.35;;;;;;;3.60;100.00;99096.59;5085209;28;20043;-60
2023/12/06 11:10:22;;;;;;;0.50;0.50;;;;;;;3.58;100.00;99088.84;5074020;28;20481;-60
2023/12/06 11:12:55;;;;;;;0.40;0.40;;;;;;;3.59;100.00;99093.13;5090645;28;20486;-60
2023/12/06 11:15:31;;;;;;;0.40;0.40;;;;;;;3.78;100.00;99099.50;5086930;28;20493;-58
2023/12/06 11:18:07;;;;;;;0.40;0.40;;;;;;;3.82;100.00;99097.25;5094914;28;20051;-60
2023/12/06 11:20:35;;;;;;;0.50;0.50;;;;;;;3.84;100.00;99098.69;5086214;28;20052;-58
2023/12/06 11:23:02;;;;;;;0.30;0.30;;;;;;;3.90;100.00;99107.69;5086712;28;20067;-60
2023/12/06 11:25:29;;;;;;;0.40;0.40;;;;;;;3.99;100.00;99098.47;5086063;28;20390;-60
2023/12/06 11:27:56;;;;;;;0.30;0.30;;;;;;;4.04;100.00;99098.72;5083603;28;20131;-58
2023/12/06 11:30:23;;;;;;;0.40;0.40;;;;;;;3.93;100.00;99101.16;5089763;28;20580;-58
2023/12/06 11:32:56;;;;;;;0.43;0.43;;;;;;;4.00;100.00;99094.84;5092815;28;20511;-60
2023/12/06 11:35:25;;;;;;;0.40;0.40;;;;;;;3.93;100.00;99096.66;5089568;28;20046;-60